Time;durP1;ratioP1;P1;durP2;ratioP2;P2;SDS_P1;SDS_P2;PMS_P1;PMS_P2;Temp;Humidity;BMP_temperature;BMP_pressure;BME280_temperature;BME280_humidity;BME280_pressure;Samples;Min_cycle;Max_cycle;Signal;HPM_P1;HPM_P2
2023/08/11 00:01:57;;;;;;;0.10;0.10;;;13.10;99.90;;;;;;5029624;28;20198;-79
2023/08/11 00:04:22;;;;;;;0.10;0.10;;;13.10;99.90;;;;;;5029619;28;20445;-79
2023/08/11 00:06:48;;;;;;;0.10;0.10;;;13.20;99.90;;;;;;5027330;28;20187;-80
2023/08/11 00:09:15;;;;;;;0.10;0.10;;;13.10;99.90;;;;;;5032171;28;20175;-81
2023/08/11 00:11:41;;;;;;;0.10;0.10;;;12.90;99.90;;;;;;5030999;28;20194;-81
2023/08/11 00:14:06;;;;;;;0.10;0.10;;;13.00;99.90;;;;;;5030804;28;20478;-81
2023/08/11 00:16:32;;;;;;;0.10;0.10;;;12.80;99.90;;;;;;5028016;28;20659;-81
2023/08/11 00:18:58;;;;;;;0.10;0.10;;;12.80;99.90;;;;;;5020976;28;20595;-81
2023/08/11 00:21:23;;;;;;;0.10;0.10;;;12.90;99.90;;;;;;5028600;28;20558;-81
2023/08/11 00:23:49;;;;;;;0.10;0.10;;;12.90;99.90;;;;;;5027500;28;20203;-80
2023/08/11 00:26:15;;;;;;;0.10;0.10;;;13.00;99.90;;;;;;5033497;28;20664;-81
2023/08/11 00:28:43;;;;;;;0.10;0.10;;;13.00;99.90;;;;;;5035579;28;20233;-80
2023/08/11 00:31:08;;;;;;;0.20;0.20;;;12.70;99.90;;;;;;5027210;28;20188;-81
2023/08/11 00:33:34;;;;;;;0.10;0.10;;;12.60;99.90;;;;;;5030427;28;20528;-81
2023/08/11 00:36:01;;;;;;;0.13;0.13;;;12.60;99.90;;;;;;5034651;28;20211;-81
2023/08/11 00:38:37;;;;;;;0.10;0.10;;;12.70;99.90;;;;;;5036830;28;20473;-80
2023/08/11 00:41:02;;;;;;;0.10;0.10;;;12.70;99.90;;;;;;5027555;28;20211;-79
2023/08/11 00:43:28;;;;;;;0.10;0.10;;;12.60;99.90;;;;;;5026769;28;20571;-78
2023/08/11 00:45:53;;;;;;;0.10;0.10;;;12.70;99.90;;;;;;5026684;28;20249;-79
2023/08/11 00:48:19;;;;;;;0.10;0.10;;;12.50;99.90;;;;;;5030003;28;20663;-78
2023/08/11 00:50:45;;;;;;;0.10;0.10;;;12.50;99.90;;;;;;5035474;28;20241;-78
2023/08/11 00:53:11;;;;;;;0.10;0.10;;;12.60;99.90;;;;;;5031207;28;20195;-78
2023/08/11 00:55:37;;;;;;;0.10;0.10;;;12.50;99.90;;;;;;5027365;28;20815;-79
2023/08/11 00:58:04;;;;;;;0.10;0.10;;;12.50;99.90;;;;;;5028431;28;20184;-78
2023/08/11 01:00:30;;;;;;;0.10;0.10;;;12.50;99.90;;;;;;5025698;28;20522;-78
2023/08/11 01:02:55;;;;;;;0.10;0.10;;;12.60;99.90;;;;;;5024232;28;20533;-78
2023/08/11 01:05:21;;;;;;;0.13;0.13;;;12.60;99.90;;;;;;5031953;28;20925;-78
2023/08/11 01:07:53;;;;;;;0.10;0.10;;;12.40;99.90;;;;;;5029446;28;20207;-78
2023/08/11 01:10:18;;;;;;;0.20;0.20;;;12.60;99.90;;;;;;5030769;28;21032;-79
2023/08/11 01:12:46;;;;;;;0.20;0.20;;;12.60;99.90;;;;;;5030517;28;20497;-78
2023/08/11 01:15:29;;;;;;;0.10;0.10;;;12.60;99.90;;;;;;5030027;28;20187;-78
2023/08/11 01:17:56;;;;;;;0.20;0.20;;;12.60;99.90;;;;;;5042897;28;20569;-78
2023/08/11 01:20:23;;;;;;;0.10;0.10;;;12.50;99.90;;;;;;5027700;28;20440;-78
2023/08/11 01:22:54;;;;;;;0.13;0.13;;;12.60;99.90;;;;;;5029109;28;21336;-79
2023/08/11 01:25:20;;;;;;;0.20;0.20;;;12.60;99.90;;;;;;5026305;28;20969;-78
2023/08/11 01:27:53;;;;;;;0.10;0.10;;;12.70;99.90;;;;;;5036287;28;20527;-78
2023/08/11 01:30:19;;;;;;;0.10;0.10;;;12.50;99.90;;;;;;5042404;28;20468;-79
2023/08/11 01:32:45;;;;;;;0.10;0.10;;;12.50;99.90;;;;;;5029719;28;20802;-78
2023/08/11 01:35:11;;;;;;;0.20;0.20;;;12.50;99.90;;;;;;5027641;28;20191;-78
2023/08/11 01:37:36;;;;;;;0.20;0.20;;;12.60;99.90;;;;;;5027324;28;20237;-78
2023/08/11 01:40:10;;;;;;;0.17;0.17;;;12.60;99.90;;;;;;5028871;28;20464;-78
2023/08/11 01:42:37;;;;;;;0.20;0.20;;;12.50;99.90;;;;;;5030359;28;20286;-78
2023/08/11 01:45:02;;;;;;;0.20;0.20;;;12.40;99.90;;;;;;5025426;28;20493;-79
2023/08/11 01:47:28;;;;;;;0.20;0.20;;;12.50;99.90;;;;;;5025714;28;20442;-78
2023/08/11 01:49:53;;;;;;;0.10;0.10;;;12.50;99.90;;;;;;5026172;28;20253;-78
2023/08/11 01:52:19;;;;;;;0.10;0.10;;;12.50;99.90;;;;;;5042546;28;20651;-78
2023/08/11 01:54:45;;;;;;;0.10;0.10;;;12.50;99.90;;;;;;5026519;28;20226;-78
2023/08/11 01:57:11;;;;;;;0.10;0.10;;;12.50;99.90;;;;;;5043776;28;20647;-77
2023/08/11 01:59:36;;;;;;;0.20;0.20;;;12.40;99.90;;;;;;5044248;28;20673;-78
2023/08/11 02:02:02;;;;;;;0.13;0.13;;;12.40;99.90;;;;;;5041970;28;20500;-78
2023/08/11 02:04:28;;;;;;;0.10;0.10;;;12.30;99.90;;;;;;5027651;28;20193;-79
2023/08/11 02:06:54;;;;;;;0.10;0.10;;;12.40;99.90;;;;;;5026395;28;20187;-78
2023/08/11 02:09:20;;;;;;;0.10;0.10;;;12.40;99.90;;;;;;5029215;28;20453;-78
2023/08/11 02:11:46;;;;;;;0.13;0.13;;;12.40;99.90;;;;;;5029634;28;20446;-78
2023/08/11 02:14:11;;;;;;;0.20;0.20;;;12.40;99.90;;;;;;5036240;28;20229;-79
2023/08/11 02:16:37;;;;;;;0.10;0.10;;;12.40;99.90;;;;;;5030654;28;20571;-79
2023/08/11 02:19:04;;;;;;;0.20;0.20;;;12.30;99.90;;;;;;5022847;28;20241;-78
2023/08/11 02:21:31;;;;;;;0.10;0.10;;;12.40;99.90;;;;;;5027615;28;20959;-79
2023/08/11 02:23:56;;;;;;;0.20;0.20;;;12.40;99.90;;;;;;5032512;28;20468;-78
2023/08/11 02:26:22;;;;;;;0.20;0.20;;;12.30;99.90;;;;;;5047203;28;20937;-78
2023/08/11 02:28:48;;;;;;;0.13;0.13;;;12.40;99.90;;;;;;5032185;28;20204;-77
2023/08/11 02:31:13;;;;;;;0.20;0.20;;;12.40;99.90;;;;;;5034984;28;20453;-79
2023/08/11 02:33:40;;;;;;;0.20;0.20;;;12.30;99.90;;;;;;5043414;28;20212;-79
2023/08/11 02:36:05;;;;;;;0.10;0.10;;;12.40;99.90;;;;;;5033868;28;20187;-79
2023/08/11 02:38:32;;;;;;;0.10;0.10;;;12.40;99.90;;;;;;5033379;28;20504;-79
2023/08/11 02:40:57;;;;;;;0.20;0.20;;;12.30;99.90;;;;;;5032283;28;20191;-78
2023/08/11 02:43:23;;;;;;;0.10;0.10;;;12.40;99.90;;;;;;5038512;28;20429;-78
2023/08/11 02:45:48;;;;;;;0.10;0.10;;;12.40;99.90;;;;;;5035615;28;20209;-78
2023/08/11 02:48:14;;;;;;;0.20;0.20;;;12.40;99.90;;;;;;5030286;28;20192;-79
2023/08/11 02:50:39;;;;;;;0.10;0.10;;;12.30;99.90;;;;;;5042382;28;20191;-79
2023/08/11 02:53:05;;;;;;;0.20;0.20;;;12.20;99.90;;;;;;5051868;28;20265;-78
2023/08/11 02:55:30;;;;;;;0.20;0.20;;;12.30;99.90;;;;;;5033322;28;20211;-78
2023/08/11 02:57:56;;;;;;;0.10;0.10;;;12.30;99.90;;;;;;5035844;28;20183;-78
2023/08/11 03:00:21;;;;;;;0.10;0.10;;;12.30;99.90;;;;;;5029976;28;20199;-78
2023/08/11 03:02:47;;;;;;;0.20;0.20;;;12.30;99.90;;;;;;5037063;28;20241;-78
2023/08/11 03:05:14;;;;;;;0.20;0.20;;;12.40;99.90;;;;;;5045835;28;20256;-79
2023/08/11 03:07:41;;;;;;;0.10;0.10;;;12.50;99.90;;;;;;5022879;28;20203;-78
2023/08/11 03:10:09;;;;;;;0.10;0.10;;;12.50;99.90;;;;;;5031328;28;20445;-78
2023/08/11 03:12:35;;;;;;;0.20;0.20;;;12.50;99.90;;;;;;5030745;28;20975;-79
2023/08/11 03:15:04;;;;;;;0.10;0.10;;;12.60;99.90;;;;;;5029023;28;20546;-79
2023/08/11 03:17:30;;;;;;;0.20;0.20;;;12.60;99.90;;;;;;5037442;28;20440;-79
2023/08/11 03:19:55;;;;;;;0.20;0.20;;;12.70;99.90;;;;;;5032065;28;20545;-79
2023/08/11 03:22:21;;;;;;;0.20;0.20;;;12.60;99.90;;;;;;5043836;28;20760;-78
2023/08/11 03:24:46;;;;;;;0.20;0.20;;;12.60;99.90;;;;;;5029764;28;20192;-78
2023/08/11 03:27:12;;;;;;;0.10;0.10;;;12.70;99.90;;;;;;5050763;28;20175;-79
2023/08/11 03:29:38;;;;;;;0.20;0.20;;;12.70;99.90;;;;;;5030724;28;20223;-78
2023/08/11 03:32:04;;;;;;;0.10;0.10;;;12.70;99.90;;;;;;5033080;28;20675;-79
2023/08/11 03:34:30;;;;;;;0.20;0.20;;;12.80;99.90;;;;;;5030490;28;20515;-79
2023/08/11 03:36:56;;;;;;;0.13;0.13;;;12.80;99.90;;;;;;5029190;28;20501;-79
2023/08/11 03:39:21;;;;;;;0.20;0.20;;;12.80;99.90;;;;;;5046854;28;20187;-80
2023/08/11 03:41:47;;;;;;;0.10;0.10;;;12.80;99.90;;;;;;5055429;28;20301;-81
2023/08/11 03:44:12;;;;;;;0.10;0.10;;;12.80;99.90;;;;;;5046334;28;20237;-80
2023/08/11 03:46:37;;;;;;;0.10;0.10;;;12.80;99.90;;;;;;5048098;28;20597;-80
2023/08/11 03:49:05;;;;;;;0.10;0.10;;;12.80;99.90;;;;;;5025725;28;20294;-80
2023/08/11 03:51:30;;;;;;;0.10;0.10;;;12.80;99.90;;;;;;5031324;28;20264;-80
2023/08/11 03:53:58;;;;;;;0.10;0.10;;;12.80;99.90;;;;;;5032100;28;20572;-80
2023/08/11 03:56:24;;;;;;;0.10;0.10;;;12.80;99.90;;;;;;5030285;28;20183;-80
2023/08/11 03:58:50;;;;;;;0.20;0.20;;;12.90;99.90;;;;;;5044019;28;20450;-81
2023/08/11 04:01:16;;;;;;;0.10;0.10;;;12.90;99.90;;;;;;5038020;28;20438;-81
2023/08/11 04:03:42;;;;;;;0.10;0.10;;;12.90;99.90;;;;;;5029141;28;20468;-81
2023/08/11 04:06:08;;;;;;;0.10;0.10;;;12.90;99.90;;;;;;5036816;28;20187;-80
2023/08/11 04:08:34;;;;;;;0.20;0.20;;;12.90;99.90;;;;;;5028937;28;20192;-81
2023/08/11 04:10:59;;;;;;;0.13;0.13;;;12.90;99.90;;;;;;5033017;28;20445;-80
2023/08/11 04:13:25;;;;;;;0.10;0.10;;;12.90;99.90;;;;;;5047785;28;20309;-80
2023/08/11 04:15:51;;;;;;;0.20;0.20;;;13.00;99.90;;;;;;5029734;28;20203;-80
2023/08/11 04:18:16;;;;;;;0.10;0.10;;;13.00;99.90;;;;;;5030008;28;20188;-80
2023/08/11 04:20:42;;;;;;;0.10;0.10;;;13.00;99.90;;;;;;5030003;28;20222;-80
2023/08/11 04:23:07;;;;;;;0.10;0.10;;;13.00;99.90;;;;;;5029644;28;20187;-80
2023/08/11 04:25:33;;;;;;;0.10;0.10;;;13.00;99.90;;;;;;5024754;28;20187;-80
2023/08/11 04:28:00;;;;;;;0.20;0.20;;;13.10;99.90;;;;;;5029308;28;20710;-80
2023/08/11 04:30:26;;;;;;;0.10;0.10;;;13.00;99.90;;;;;;5028543;28;20225;-80
2023/08/11 04:32:52;;;;;;;0.10;0.10;;;13.10;99.90;;;;;;5034550;28;20532;-80
2023/08/11 04:35:18;;;;;;;0.10;0.10;;;13.10;99.90;;;;;;5025507;28;20443;-80
2023/08/11 04:37:44;;;;;;;0.13;0.13;;;13.10;99.90;;;;;;5028222;28;20202;-80
2023/08/11 04:40:10;;;;;;;0.10;0.10;;;13.10;99.90;;;;;;5027663;28;20442;-80
2023/08/11 04:42:42;;;;;;;0.10;0.10;;;13.20;99.90;;;;;;5031843;28;20241;-80
2023/08/11 04:45:08;;;;;;;0.10;0.10;;;13.20;99.90;;;;;;5049656;28;20437;-80
2023/08/11 04:47:34;;;;;;;0.10;0.10;;;13.20;99.90;;;;;;5039905;28;20450;-80
2023/08/11 04:50:00;;;;;;;0.10;0.10;;;13.30;99.90;;;;;;5046522;28;20438;-80
2023/08/11 04:52:26;;;;;;;0.10;0.10;;;13.30;99.90;;;;;;5032997;28;20188;-80
2023/08/11 04:54:52;;;;;;;0.10;0.10;;;13.30;99.90;;;;;;5026618;28;20875;-81
2023/08/11 04:57:17;;;;;;;0.10;0.10;;;13.30;99.90;;;;;;5026077;28;20196;-80
2023/08/11 04:59:43;;;;;;;0.10;0.10;;;13.30;99.90;;;;;;5028920;28;20902;-80
2023/08/11 05:02:09;;;;;;;0.10;0.10;;;13.30;99.90;;;;;;5023498;28;20209;-80
2023/08/11 05:04:34;;;;;;;0.10;0.10;;;13.30;99.90;;;;;;5026442;28;20588;-81
2023/08/11 05:07:00;;;;;;;0.10;0.10;;;13.30;99.90;;;;;;5042292;28;20206;-80
2023/08/11 05:09:26;;;;;;;0.10;0.10;;;13.40;99.90;;;;;;5022246;28;20674;-80
2023/08/11 05:11:51;;;;;;;0.10;0.10;;;13.40;99.90;;;;;;5039710;28;20184;-78
2023/08/11 05:14:17;;;;;;;0.10;0.10;;;13.40;99.90;;;;;;5026327;28;20219;-78
2023/08/11 05:16:44;;;;;;;0.10;0.10;;;13.40;99.90;;;;;;5026315;28;20187;-80
2023/08/11 05:19:09;;;;;;;0.10;0.10;;;13.40;99.90;;;;;;5036277;28;20806;-80
2023/08/11 05:21:36;;;;;;;0.10;0.10;;;13.40;99.90;;;;;;5037144;28;20438;-80
2023/08/11 05:24:02;;;;;;;0.10;0.10;;;13.40;99.90;;;;;;5026559;28;20179;-80
2023/08/11 05:26:28;;;;;;;0.10;0.10;;;13.50;99.90;;;;;;5029366;28;20446;-81
2023/08/11 05:28:53;;;;;;;0.10;0.10;;;13.50;99.90;;;;;;5028250;28;20810;-80
2023/08/11 05:31:19;;;;;;;0.10;0.10;;;13.60;99.90;;;;;;5028487;28;20642;-79
2023/08/11 05:33:44;;;;;;;0.10;0.10;;;13.70;99.90;;;;;;5026225;28;20226;-80
2023/08/11 05:36:10;;;;;;;0.10;0.10;;;13.70;99.90;;;;;;5019880;28;20192;-79
2023/08/11 05:38:35;;;;;;;0.10;0.10;;;13.70;99.90;;;;;;5027495;28;20214;-80
2023/08/11 05:41:01;;;;;;;0.10;0.10;;;13.70;99.90;;;;;;5043219;28;20233;-80
2023/08/11 05:43:26;;;;;;;0.10;0.10;;;13.80;99.90;;;;;;5042843;28;20636;-81
2023/08/11 05:45:52;;;;;;;0.10;0.10;;;13.90;99.90;;;;;;5026621;28;20663;-80
2023/08/11 05:48:17;;;;;;;0.10;0.10;;;13.90;99.90;;;;;;5043290;28;20180;-80
2023/08/11 05:50:45;;;;;;;0.10;0.10;;;13.90;99.90;;;;;;5030660;28;20206;-80
2023/08/11 05:53:10;;;;;;;0.10;0.10;;;14.00;99.90;;;;;;5029233;28;20193;-80
2023/08/11 05:55:36;;;;;;;0.10;0.10;;;14.00;99.90;;;;;;5035981;28;21393;-80
2023/08/11 05:58:02;;;;;;;0.10;0.10;;;14.10;99.90;;;;;;5042877;28;20221;-81
2023/08/11 06:00:27;;;;;;;0.10;0.10;;;14.10;99.90;;;;;;5025621;28;20211;-79
2023/08/11 06:02:53;;;;;;;0.10;0.10;;;14.20;99.90;;;;;;5027474;28;20222;-80
2023/08/11 06:05:21;;;;;;;0.10;0.10;;;14.20;99.90;;;;;;5025670;28;20179;-80
2023/08/11 06:07:48;;;;;;;0.10;0.10;;;14.20;99.90;;;;;;5020598;28;20200;-79
2023/08/11 06:10:13;;;;;;;0.10;0.10;;;14.30;99.90;;;;;;5037154;28;20828;-79
2023/08/11 06:12:39;;;;;;;0.10;0.10;;;14.30;99.90;;;;;;5033834;28;20929;-80
2023/08/11 06:15:05;;;;;;;0.10;0.10;;;14.40;99.90;;;;;;5029190;28;20763;-80
2023/08/11 06:17:31;;;;;;;0.10;0.10;;;14.40;99.90;;;;;;5042809;28;20187;-80
2023/08/11 06:19:57;;;;;;;0.10;0.10;;;14.50;99.90;;;;;;5026964;28;21017;-80
2023/08/11 06:22:23;;;;;;;0.10;0.10;;;14.50;99.90;;;;;;5025783;28;20176;-80
2023/08/11 06:24:48;;;;;;;0.10;0.10;;;14.60;99.90;;;;;;5022916;28;20504;-80
2023/08/11 06:27:14;;;;;;;0.10;0.10;;;14.60;99.90;;;;;;5028349;28;20191;-80
2023/08/11 06:29:40;;;;;;;0.10;0.10;;;14.60;99.90;;;;;;5027324;28;20314;-80
2023/08/11 06:32:06;;;;;;;0.10;0.10;;;14.60;99.90;;;;;;5042321;28;20269;-80
2023/08/11 06:34:32;;;;;;;0.10;0.10;;;14.70;99.90;;;;;;5038571;28;20569;-81
2023/08/11 06:36:58;;;;;;;0.10;0.10;;;14.70;99.90;;;;;;5027930;28;20529;-80
2023/08/11 06:39:23;;;;;;;0.20;0.20;;;14.80;99.90;;;;;;5032889;28;20237;-80
2023/08/11 06:41:49;;;;;;;0.10;0.10;;;14.90;99.90;;;;;;5035743;28;20217;-79
2023/08/11 06:44:14;;;;;;;0.10;0.10;;;14.90;99.90;;;;;;5056133;28;20234;-79
2023/08/11 06:46:40;;;;;;;0.10;0.10;;;15.00;99.90;;;;;;5051257;28;20265;-79
2023/08/11 06:49:06;;;;;;;0.10;0.10;;;15.00;99.90;;;;;;5024765;28;20188;-80
2023/08/11 06:51:31;;;;;;;0.10;0.10;;;15.10;99.90;;;;;;5030684;28;20179;-79
2023/08/11 06:53:57;;;;;;;0.10;0.10;;;15.20;99.90;;;;;;5023171;28;20972;-80
2023/08/11 06:56:23;;;;;;;0.10;0.10;;;15.20;99.90;;;;;;5037172;28;20191;-80
2023/08/11 06:58:48;;;;;;;0.10;0.10;;;15.30;99.90;;;;;;5038426;28;20191;-80
2023/08/11 07:01:17;;;;;;;0.10;0.10;;;15.30;99.90;;;;;;5032141;28;20551;-80
2023/08/11 07:03:44;;;;;;;0.10;0.10;;;15.40;99.90;;;;;;5052024;28;20191;-80
2023/08/11 07:06:10;;;;;;;0.10;0.10;;;15.40;99.90;;;;;;5031770;28;20523;-80
2023/08/11 07:08:36;;;;;;;0.10;0.10;;;15.50;99.90;;;;;;5046753;28;20445;-81
2023/08/11 07:11:01;;;;;;;0.10;0.10;;;15.50;99.90;;;;;;5045426;28;20458;-80
2023/08/11 07:13:27;;;;;;;0.10;0.10;;;15.50;99.90;;;;;;5031144;28;20219;-81
2023/08/11 07:15:59;;;;;;;0.10;0.10;;;15.50;99.90;;;;;;5027863;28;20558;-81
2023/08/11 07:18:24;;;;;;;0.10;0.10;;;15.60;99.90;;;;;;5024854;28;20184;-80
2023/08/11 07:20:50;;;;;;;0.10;0.10;;;15.60;99.90;;;;;;5026862;28;20458;-79
2023/08/11 07:23:16;;;;;;;0.10;0.10;;;15.60;99.90;;;;;;5030675;28;20179;-80
2023/08/11 07:25:43;;;;;;;0.10;0.10;;;15.60;99.90;;;;;;5026167;28;20195;-80
2023/08/11 07:28:08;;;;;;;0.10;0.10;;;15.70;99.90;;;;;;5041680;28;20457;-80
2023/08/11 07:30:36;;;;;;;0.10;0.10;;;15.80;99.90;;;;;;5028302;28;20501;-80
2023/08/11 07:33:02;;;;;;;0.10;0.10;;;15.70;99.90;;;;;;5024808;28;20195;-80
2023/08/11 07:35:27;;;;;;;0.10;0.10;;;15.80;99.90;;;;;;5022975;28;20523;-80
2023/08/11 07:37:53;;;;;;;0.10;0.10;;;15.80;99.90;;;;;;5030819;28;20450;-80
2023/08/11 07:40:19;;;;;;;0.10;0.10;;;15.80;99.90;;;;;;5026248;28;20191;-80
2023/08/11 07:42:44;;;;;;;0.10;0.10;;;15.90;99.90;;;;;;5025474;28;20203;-80
2023/08/11 07:45:10;;;;;;;0.10;0.10;;;15.90;99.90;;;;;;5031746;28;20191;-79
2023/08/11 07:47:36;;;;;;;0.10;0.10;;;16.00;99.90;;;;;;5032431;28;20282;-80
2023/08/11 07:50:01;;;;;;;0.10;0.10;;;16.00;99.90;;;;;;5027742;28;20184;-80
2023/08/11 07:52:27;;;;;;;0.10;0.10;;;16.10;99.90;;;;;;5023906;28;20557;-80
2023/08/11 07:54:52;;;;;;;0.10;0.10;;;16.10;99.90;;;;;;5038151;28;20693;-81
2023/08/11 07:57:18;;;;;;;0.10;0.10;;;16.20;99.90;;;;;;5028554;28;20194;-80
2023/08/11 07:59:43;;;;;;;0.10;0.10;;;16.20;99.90;;;;;;5026052;28;20191;-80
2023/08/11 08:02:12;;;;;;;0.10;0.10;;;16.20;99.90;;;;;;5051667;28;20184;-80
2023/08/11 08:04:37;;;;;;;0.10;0.10;;;16.20;99.90;;;;;;5029146;28;20313;-80
2023/08/11 08:07:03;;;;;;;0.10;0.10;;;16.30;99.90;;;;;;5048543;28;20519;-80
2023/08/11 08:09:28;;;;;;;0.10;0.10;;;16.30;99.90;;;;;;5050880;28;20191;-80
2023/08/11 08:11:54;;;;;;;0.10;0.10;;;16.40;99.90;;;;;;5030770;28;20180;-81
2023/08/11 08:14:20;;;;;;;0.10;0.10;;;16.50;99.90;;;;;;5031599;28;20243;-80
2023/08/11 08:16:45;;;;;;;0.10;0.10;;;16.50;99.90;;;;;;5031793;28;20191;-80
2023/08/11 08:19:11;;;;;;;0.10;0.10;;;16.50;99.90;;;;;;5026405;28;20195;-80
2023/08/11 08:21:38;;;;;;;0.10;0.10;;;16.60;99.90;;;;;;5031126;28;20643;-80
2023/08/11 08:24:04;;;;;;;0.10;0.10;;;16.60;99.90;;;;;;5029373;28;20490;-80
2023/08/11 08:26:31;;;;;;;0.10;0.10;;;16.70;99.90;;;;;;5024855;28;20465;-81
2023/08/11 08:28:57;;;;;;;0.10;0.10;;;16.70;99.90;;;;;;5026620;28;20450;-81
2023/08/11 08:31:22;;;;;;;0.10;0.10;;;16.70;99.90;;;;;;5028684;28;20481;-82
2023/08/11 08:33:48;;;;;;;0.10;0.10;;;16.80;99.90;;;;;;5029212;28;20245;-82
2023/08/11 08:36:13;;;;;;;0.10;0.10;;;16.90;99.90;;;;;;5040708;28;20187;-81
2023/08/11 08:38:39;;;;;;;0.10;0.10;;;16.90;99.90;;;;;;5051921;28;20203;-81
2023/08/11 08:41:08;;;;;;;0.10;0.10;;;17.10;99.90;;;;;;5030119;28;20188;-82
2023/08/11 08:43:34;;;;;;;0.10;0.10;;;17.10;99.90;;;;;;5035510;28;20476;-81
2023/08/11 08:46:02;;;;;;;0.10;0.10;;;17.10;99.90;;;;;;5027657;28;20449;-82
2023/08/11 08:48:38;;;;;;;0.10;0.10;;;17.20;99.90;;;;;;5029694;28;20489;-82
2023/08/11 08:51:04;;;;;;;0.10;0.10;;;17.20;99.90;;;;;;5026549;28;20441;-81
2023/08/11 08:53:30;;;;;;;0.10;0.10;;;17.20;99.90;;;;;;5022485;28;20472;-81
2023/08/11 08:55:56;;;;;;;0.10;0.10;;;17.20;99.90;;;;;;5031246;28;20199;-82
2023/08/11 08:58:21;;;;;;;0.10;0.10;;;17.20;99.90;;;;;;5023457;28;20279;-81
2023/08/11 09:00:47;;;;;;;0.10;0.10;;;17.30;99.90;;;;;;5029206;28;20518;-81
2023/08/11 09:03:13;;;;;;;0.10;0.10;;;17.40;99.90;;;;;;5019831;28;20586;-81
2023/08/11 09:05:38;;;;;;;0.10;0.10;;;17.50;99.90;;;;;;5047725;28;20945;-81
2023/08/11 09:08:04;;;;;;;0.10;0.10;;;17.50;99.90;;;;;;5048605;28;20479;-81
2023/08/11 09:10:31;;;;;;;0.10;0.10;;;17.60;99.90;;;;;;5039271;28;20188;-82
2023/08/11 09:12:56;;;;;;;0.10;0.10;;;17.60;99.90;;;;;;5037228;28;20237;-81
2023/08/11 09:15:22;;;;;;;0.10;0.10;;;17.70;99.90;;;;;;5027676;28;20490;-81
2023/08/11 09:17:47;;;;;;;0.10;0.10;;;17.60;99.90;;;;;;5044533;28;20255;-81
2023/08/11 09:20:17;;;;;;;0.10;0.10;;;17.60;99.90;;;;;;5041335;28;20183;-82
2023/08/11 09:22:43;;;;;;;0.10;0.00;;;17.70;99.90;;;;;;5029883;28;20669;-82
2023/08/11 09:25:10;;;;;;;0.10;0.10;;;17.80;99.90;;;;;;5032531;28;20449;-80
2023/08/11 09:27:36;;;;;;;0.10;0.10;;;17.70;99.90;;;;;;5036239;28;20672;-82
2023/08/11 09:30:03;;;;;;;0.10;0.10;;;17.70;99.90;;;;;;5024720;28;20486;-82
2023/08/11 09:32:32;;;;;;;0.10;0.10;;;17.90;99.90;;;;;;5049957;28;20241;-82
2023/08/11 09:35:02;;;;;;;0.10;0.00;;;18.00;99.90;;;;;;5027263;28;20488;-83
2023/08/11 09:37:27;;;;;;;0.10;0.10;;;18.10;99.90;;;;;;5032946;28;20437;-82
2023/08/11 09:40:01;;;;;;;0.10;0.10;;;18.10;99.90;;;;;;5047159;28;20452;-81
2023/08/11 09:42:26;;;;;;;0.10;0.10;;;18.10;99.90;;;;;;5026576;28;20188;-81
2023/08/11 09:44:53;;;;;;;0.10;0.10;;;18.00;99.90;;;;;;5039325;28;20786;-82
2023/08/11 09:47:19;;;;;;;0.10;0.10;;;18.00;99.90;;;;;;5024307;28;20535;-82
2023/08/11 09:49:44;;;;;;;0.10;0.10;;;18.00;99.90;;;;;;5033273;28;20445;-82
2023/08/11 09:52:12;;;;;;;0.10;0.10;;;18.10;99.90;;;;;;5031214;28;20444;-81
2023/08/11 09:54:42;;;;;;;0.10;0.10;;;18.00;99.90;;;;;;5031901;28;20314;-82
2023/08/11 09:57:08;;;;;;;0.10;0.10;;;18.10;99.90;;;;;;5027705;28;20441;-82
2023/08/11 09:59:34;;;;;;;0.10;0.10;;;18.20;99.90;;;;;;5028137;28;20446;-82
2023/08/11 10:02:02;;;;;;;0.10;0.10;;;18.20;99.90;;;;;;5032364;28;20444;-80
2023/08/11 10:04:37;;;;;;;0.10;0.10;;;18.10;99.90;;;;;;5028163;28;20438;-82
2023/08/11 10:07:09;;;;;;;0.10;0.07;;;18.10;99.90;;;;;;5038942;28;20430;-81
2023/08/11 10:09:36;;;;;;;0.10;0.10;;;18.10;99.90;;;;;;5026356;28;20867;-82
2023/08/11 10:12:04;;;;;;;0.10;0.00;;;18.20;99.90;;;;;;5028211;28;20430;-82
2023/08/11 10:14:32;;;;;;;0.10;0.10;;;18.20;99.90;;;;;;5040051;28;20490;-82
2023/08/11 10:16:58;;;;;;;0.10;0.10;;;18.30;99.90;;;;;;5036582;28;20534;-81
2023/08/11 10:19:24;;;;;;;0.10;0.10;;;18.30;99.90;;;;;;5026598;28;20478;-81
2023/08/11 10:21:50;;;;;;;0.10;0.10;;;18.30;99.90;;;;;;5024520;28;20482;-82
2023/08/11 10:24:15;;;;;;;0.10;0.10;;;18.40;99.90;;;;;;5025843;28;20652;-87
2023/08/11 10:26:41;;;;;;;0.10;0.10;;;18.50;99.90;;;;;;5027310;28;20274;-87
2023/08/11 10:29:08;;;;;;;0.10;0.10;;;18.60;99.90;;;;;;5035094;28;20231;-86
2023/08/11 10:31:34;;;;;;;0.10;0.10;;;18.80;99.90;;;;;;5023793;28;20199;-86
2023/08/11 10:34:06;;;;;;;0.10;0.10;;;18.90;99.90;;;;;;5026796;28;21025;-86
2023/08/11 10:36:32;;;;;;;0.10;0.10;;;19.00;99.90;;;;;;5056928;28;20581;-88
2023/08/11 10:39:06;;;;;;;0.10;0.00;;;19.20;99.90;;;;;;5031463;28;20859;-86
2023/08/11 10:41:32;;;;;;;0.10;0.10;;;19.20;99.90;;;;;;5030250;28;20450;-87
2023/08/11 10:43:58;;;;;;;0.10;0.10;;;19.20;99.90;;;;;;5025411;28;20487;-87
2023/08/11 10:46:28;;;;;;;0.10;0.10;;;19.20;99.90;;;;;;5030656;28;20545;-86
2023/08/11 10:48:58;;;;;;;0.10;0.00;;;19.30;99.90;;;;;;5032106;28;20278;-87
2023/08/11 10:51:27;;;;;;;0.10;0.00;;;19.30;99.90;;;;;;5032616;28;20422;-86
2023/08/11 10:54:23;;;;;;;0.10;0.10;;;19.40;99.90;;;;;;5029391;28;20960;-86
2023/08/11 10:56:51;;;;;;;0.10;0.00;;;19.40;99.90;;;;;;5037948;28;20961;-85
2023/08/11 10:59:19;;;;;;;0.10;0.10;;;19.30;99.90;;;;;;5029789;28;20438;-85
2023/08/11 11:01:49;;;;;;;0.10;0.00;;;19.40;99.90;;;;;;5028753;28;20518;-85
2023/08/11 11:04:16;;;;;;;0.10;0.00;;;19.60;99.90;;;;;;5024430;28;20446;-84
2023/08/11 11:06:44;;;;;;;0.10;0.00;;;19.80;99.90;;;;;;5034746;28;20438;-85
2023/08/11 11:09:11;;;;;;;0.10;0.10;;;19.90;99.90;;;;;;5030259;28;20442;-87
2023/08/11 11:11:37;;;;;;;0.10;0.00;;;19.80;99.90;;;;;;5040705;28;20446;-85
2023/08/11 11:14:04;;;;;;;0.10;0.00;;;19.90;99.90;;;;;;5050959;28;20581;-85
2023/08/11 11:16:32;;;;;;;0.10;0.10;;;20.10;99.90;;;;;;5028639;28;20601;-86
2023/08/11 11:18:59;;;;;;;0.10;0.00;;;20.30;99.90;;;;;;5030326;28;20446;-87
2023/08/11 11:21:24;;;;;;;0.10;0.00;;;20.60;99.90;;;;;;5030433;28;20442;-88
2023/08/11 11:23:51;;;;;;;0.10;0.00;;;20.90;99.90;;;;;;5028243;28;21005;-85
2023/08/11 11:26:25;;;;;;;0.10;0.00;;;20.90;99.90;;;;;;5043142;28;20187;-88
2023/08/11 11:28:52;;;;;;;0.10;0.00;;;21.00;99.90;;;;;;5031612;28;20445;-86
2023/08/11 11:31:19;;;;;;;0.10;0.00;;;21.30;99.90;;;;;;5030971;28;20942;-86
2023/08/11 11:33:45;;;;;;;0.10;0.00;;;21.30;99.90;;;;;;5028396;28;20627;-85
2023/08/11 11:36:12;;;;;;;0.10;0.00;;;21.50;99.90;;;;;;5027355;28;20516;-85
2023/08/11 11:38:39;;;;;;;0.10;0.00;;;22.00;99.90;;;;;;5036124;28;20465;-88
2023/08/11 11:41:09;;;;;;;0.10;0.00;;;21.70;99.90;;;;;;5033622;28;20444;-88
2023/08/11 11:43:35;;;;;;;0.10;0.00;;;22.10;99.90;;;;;;5033125;28;20441;-86
2023/08/11 11:46:01;;;;;;;0.10;0.00;;;22.50;99.90;;;;;;5028552;28;21008;-86
2023/08/11 11:48:27;;;;;;;0.10;0.00;;;22.70;99.90;;;;;;5029670;28;20446;-87
2023/08/11 11:50:55;;;;;;;0.10;0.00;;;22.90;99.90;;;;;;5022474;28;20726;-87
2023/08/11 11:53:22;;;;;;;0.10;0.00;;;22.80;99.90;;;;;;5046543;28;20202;-86
2023/08/11 11:55:51;;;;;;;0.10;0.00;;;23.00;99.90;;;;;;5050386;28;20487;-86
2023/08/11 11:58:17;;;;;;;0.10;0.00;;;23.20;99.90;;;;;;5042365;28;20536;-87
2023/08/11 12:00:46;;;;;;;0.10;0.00;;;23.30;99.90;;;;;;5037811;28;20542;-86
2023/08/11 12:03:12;;;;;;;0.10;0.00;;;23.50;99.90;;;;;;5044338;28;20937;-86
2023/08/11 12:05:37;;;;;;;0.10;0.00;;;23.60;99.90;;;;;;5032209;28;20446;-86
2023/08/11 12:08:22;;;;;;;0.10;0.00;;;23.30;99.90;;;;;;5031518;28;20452;-87
2023/08/11 12:10:48;;;;;;;0.10;0.00;;;23.30;99.90;;;;;;5032410;28;20273;-87
2023/08/11 12:13:14;;;;;;;0.10;0.00;;;23.60;99.90;;;;;;5040967;28;20434;-86
2023/08/11 12:15:40;;;;;;;0.10;0.00;;;23.90;99.90;;;;;;5029122;28;20461;-87
2023/08/11 12:18:06;;;;;;;0.10;0.00;;;24.00;99.90;;;;;;5028110;28;20441;-87
2023/08/11 12:20:31;;;;;;;0.10;0.00;;;23.90;99.90;;;;;;5040934;28;20694;-87
2023/08/11 12:22:57;;;;;;;0.10;0.00;;;24.10;99.90;;;;;;5029328;28;20438;-86
2023/08/11 12:25:23;;;;;;;0.10;0.00;;;24.20;99.90;;;;;;5046436;28;20526;-86
2023/08/11 12:27:48;;;;;;;0.10;0.00;;;23.90;99.90;;;;;;5033192;28;20192;-84
2023/08/11 12:30:16;;;;;;;0.10;0.00;;;24.10;99.90;;;;;;5030029;28;20770;-84
2023/08/11 12:32:41;;;;;;;0.10;0.00;;;24.10;99.90;;;;;;5038471;28;20266;-85
2023/08/11 12:35:11;;;;;;;0.10;0.00;;;23.80;99.90;;;;;;5027651;28;20519;-84
2023/08/11 12:37:37;;;;;;;0.10;0.00;;;23.90;99.90;;;;;;5024477;28;20192;-84
2023/08/11 12:40:03;;;;;;;0.10;0.00;;;23.80;99.90;;;;;;5044166;28;20449;-82
2023/08/11 12:42:29;;;;;;;0.10;0.10;;;23.90;99.90;;;;;;5049975;28;20171;-86
2023/08/11 12:44:54;;;;;;;0.10;0.00;;;23.50;99.90;;;;;;5044751;28;20577;-86